createdAt,value
2018-04-18T00:00:30.226Z,997.43
2018-04-18T00:01:30.219Z,997.42
2018-04-18T00:02:30.177Z,997.41
2018-04-18T00:03:30.121Z,997.44
2018-04-18T00:04:30.105Z,997.42
2018-04-18T00:05:30.035Z,997.45
2018-04-18T00:06:30.023Z,997.48
2018-04-18T00:07:29.959Z,997.50
2018-04-18T00:08:29.923Z,997.51
2018-04-18T00:09:29.930Z,997.49
2018-04-18T00:10:29.866Z,997.48
2018-04-18T00:11:29.835Z,997.48
2018-04-18T00:12:29.785Z,997.47
2018-04-18T00:13:29.740Z,997.47
2018-04-18T00:14:29.711Z,997.49
2018-04-18T00:15:29.674Z,997.49
2018-04-18T00:16:29.607Z,997.53
2018-04-18T00:17:29.576Z,997.49
2018-04-18T00:18:29.524Z,997.51
2018-04-18T00:19:29.497Z,997.53
2018-04-18T00:20:29.469Z,997.55
2018-04-18T00:21:29.421Z,997.55
2018-04-18T00:22:29.398Z,997.59
2018-04-18T00:23:29.350Z,997.52
2018-04-18T00:24:29.267Z,997.53
2018-04-18T00:25:29.231Z,997.52
2018-04-18T00:26:29.215Z,997.52
2018-04-18T00:27:29.155Z,997.50
2018-04-18T00:28:29.816Z,997.49
2018-04-18T00:29:29.119Z,997.52
2018-04-18T00:30:29.092Z,997.50
2018-04-18T00:31:29.005Z,997.47
2018-04-18T00:32:29.000Z,997.48
2018-04-18T00:33:29.804Z,997.47
2018-04-18T00:34:49.892Z,997.55
2018-04-18T00:35:28.836Z,997.53
2018-04-18T00:36:28.814Z,997.55
2018-04-18T00:37:28.755Z,997.55
2018-04-18T00:38:28.747Z,997.53
2018-04-18T00:39:28.787Z,997.57
2018-04-18T00:40:28.654Z,997.56
2018-04-18T00:41:28.599Z,997.56
2018-04-18T00:42:28.599Z,997.51
2018-04-18T00:43:28.508Z,997.53
2018-04-18T00:44:28.495Z,997.52
2018-04-18T00:45:28.455Z,997.50
2018-04-18T00:46:28.432Z,997.48
2018-04-18T00:47:28.367Z,997.49
2018-04-18T00:48:28.332Z,997.47
2018-04-18T00:49:28.279Z,997.48
2018-04-18T00:50:28.254Z,997.49
2018-04-18T00:51:28.281Z,997.49
2018-04-18T00:52:28.165Z,997.50
2018-04-18T00:53:28.147Z,997.50
2018-04-18T00:54:28.116Z,997.51
2018-04-18T00:55:28.034Z,997.49
2018-04-18T00:56:28.013Z,997.52
2018-04-18T00:57:27.949Z,997.49
2018-04-18T00:58:27.906Z,997.50
2018-04-18T00:59:27.902Z,997.51
2018-04-18T01:00:27.878Z,997.52
2018-04-18T01:01:27.799Z,997.54
2018-04-18T01:02:27.763Z,997.52
2018-04-18T01:03:27.719Z,997.52
2018-04-18T01:04:27.704Z,997.48
2018-04-18T01:05:27.655Z,997.48
2018-04-18T01:06:27.654Z,997.50
2018-04-18T01:07:27.559Z,997.45
2018-04-18T01:08:27.519Z,997.49
2018-04-18T01:09:27.473Z,997.47
2018-04-18T01:10:27.438Z,997.46
2018-04-18T01:11:27.397Z,997.46
2018-04-18T01:12:27.340Z,997.46
2018-04-18T01:13:27.344Z,997.42
2018-04-18T01:14:27.276Z,997.46
2018-04-18T01:15:27.250Z,997.45
2018-04-18T01:16:27.191Z,997.45
2018-04-18T01:17:27.150Z,997.45
2018-04-18T01:18:27.128Z,997.47
2018-04-18T01:19:27.076Z,997.44
2018-04-18T01:20:27.072Z,997.45
2018-04-18T01:21:27.015Z,997.46
2018-04-18T01:22:26.960Z,997.49
2018-04-18T01:23:26.933Z,997.52
2018-04-18T01:24:26.859Z,997.51
2018-04-18T01:25:26.830Z,997.54
2018-04-18T01:26:27.322Z,997.55
2018-04-18T01:27:26.765Z,997.53
2018-04-18T01:28:26.831Z,997.52
2018-04-18T01:29:26.672Z,997.50
2018-04-18T01:30:26.619Z,997.49
2018-04-18T01:31:26.575Z,997.47
2018-04-18T01:32:26.564Z,997.47
2018-04-18T01:33:26.524Z,997.46
2018-04-18T01:34:26.461Z,997.47
2018-04-18T01:35:26.404Z,997.51
2018-04-18T01:36:26.388Z,997.47
2018-04-18T01:37:26.339Z,997.47
2018-04-18T01:38:26.295Z,997.47
2018-04-18T01:39:26.283Z,997.51
2018-04-18T01:40:26.206Z,997.46
2018-04-18T01:41:26.178Z,997.45
2018-04-18T01:42:26.132Z,997.49
2018-04-18T01:43:26.108Z,997.45
2018-04-18T01:44:26.058Z,997.47
2018-04-18T01:45:26.008Z,997.50
2018-04-18T01:46:25.965Z,997.48
2018-04-18T01:47:25.973Z,997.46
2018-04-18T01:48:25.906Z,997.45
2018-04-18T01:49:25.853Z,997.44
2018-04-18T01:50:25.812Z,997.45
2018-04-18T01:51:25.770Z,997.42
2018-04-18T01:52:25.758Z,997.41
2018-04-18T01:53:25.699Z,997.41
2018-04-18T01:54:25.666Z,997.42
2018-04-18T01:55:25.619Z,997.40
2018-04-18T01:56:25.565Z,997.36
2018-04-18T01:57:25.567Z,997.35
2018-04-18T01:58:25.513Z,997.37
2018-04-18T01:59:25.454Z,997.36
2018-04-18T02:00:25.438Z,997.35
2018-04-18T02:01:25.366Z,997.35
2018-04-18T02:02:25.351Z,997.42
2018-04-18T02:03:25.300Z,997.47
2018-04-18T02:04:25.247Z,997.44
2018-04-18T02:05:25.204Z,997.47
2018-04-18T02:06:25.175Z,997.46
2018-04-18T02:07:25.129Z,997.49
2018-04-18T02:08:25.086Z,997.48
2018-04-18T02:09:25.070Z,997.44
2018-04-18T02:10:25.000Z,997.49
2018-04-18T02:11:24.966Z,997.46
2018-04-18T02:12:24.903Z,997.46
2018-04-18T02:13:25.830Z,997.50
2018-04-18T02:14:24.838Z,997.45
2018-04-18T02:15:24.798Z,997.50
2018-04-18T02:16:24.760Z,997.54
2018-04-18T02:17:24.717Z,997.52
2018-04-18T02:18:24.667Z,997.58
2018-04-18T02:19:24.618Z,997.53
2018-04-18T02:20:24.589Z,997.57
2018-04-18T02:21:24.620Z,997.55
2018-04-18T02:22:24.507Z,997.55
2018-04-18T02:23:24.561Z,997.55
2018-04-18T02:24:24.424Z,997.54
2018-04-18T02:25:24.445Z,997.56
2018-04-18T02:26:24.342Z,997.55
2018-04-18T02:27:24.305Z,997.57
2018-04-18T02:28:24.261Z,997.60
2018-04-18T02:29:24.220Z,997.56
2018-04-18T02:30:24.203Z,997.60
2018-04-18T02:31:24.150Z,997.62
2018-04-18T02:32:24.101Z,997.62
2018-04-18T02:33:24.069Z,997.61
2018-04-18T02:34:24.046Z,997.60
2018-04-18T02:35:23.968Z,997.57
2018-04-18T02:36:23.982Z,997.58
2018-04-18T02:37:23.918Z,997.54
2018-04-18T02:38:23.856Z,997.58
2018-04-18T02:39:23.810Z,997.57
2018-04-18T02:40:23.766Z,997.57
2018-04-18T02:41:23.727Z,997.58
2018-04-18T02:42:23.686Z,997.60
2018-04-18T02:43:23.659Z,997.59
2018-04-18T02:44:23.602Z,997.57
2018-04-18T02:45:23.572Z,997.56
2018-04-18T02:46:23.559Z,997.61
2018-04-18T02:47:23.472Z,997.59
2018-04-18T02:48:23.450Z,997.62
2018-04-18T02:49:23.458Z,997.62
2018-04-18T02:50:23.378Z,997.63
2018-04-18T02:51:23.324Z,997.64
2018-04-18T02:52:23.280Z,997.61
2018-04-18T02:53:23.295Z,997.63
2018-04-18T02:54:23.189Z,997.60
2018-04-18T02:55:23.173Z,997.64
2018-04-18T02:56:23.112Z,997.64
2018-04-18T02:57:23.066Z,997.59
2018-04-18T02:58:23.052Z,997.61
2018-04-18T02:59:22.983Z,997.60
2018-04-18T03:00:22.964Z,997.58
2018-04-18T03:01:22.911Z,997.57
2018-04-18T03:02:22.914Z,997.62
2018-04-18T03:03:22.832Z,997.61
2018-04-18T03:04:22.793Z,997.62
2018-04-18T03:05:22.764Z,997.61
2018-04-18T03:06:22.691Z,997.64
2018-04-18T03:07:22.674Z,997.63
2018-04-18T03:08:22.644Z,997.59
2018-04-18T03:09:22.608Z,997.63
2018-04-18T03:10:22.558Z,997.62
2018-04-18T03:11:22.536Z,997.61
2018-04-18T03:12:22.460Z,997.61
2018-04-18T03:13:22.464Z,997.63
2018-04-18T03:14:22.395Z,997.61
2018-04-18T03:15:22.337Z,997.65
2018-04-18T03:16:22.318Z,997.65
2018-04-18T03:17:22.250Z,997.63
2018-04-18T03:18:22.210Z,997.66
2018-04-18T03:19:22.175Z,997.66
2018-04-18T03:20:22.134Z,997.65
2018-04-18T03:21:22.110Z,997.65
2018-04-18T03:22:22.053Z,997.69
2018-04-18T03:23:22.035Z,997.65
2018-04-18T03:24:21.957Z,997.64
2018-04-18T03:25:21.982Z,997.65
2018-04-18T03:26:21.901Z,997.67
2018-04-18T03:27:21.848Z,997.69
2018-04-18T03:28:21.801Z,997.68
2018-04-18T03:29:21.762Z,997.68
2018-04-18T03:30:21.741Z,997.67
2018-04-18T03:31:21.676Z,997.68
2018-04-18T03:32:21.664Z,997.68
2018-04-18T03:33:21.598Z,997.71
2018-04-18T03:34:21.571Z,997.72
2018-04-18T03:35:21.523Z,997.67
2018-04-18T03:36:21.481Z,997.74
2018-04-18T03:37:21.448Z,997.72
2018-04-18T03:38:21.414Z,997.73
2018-04-18T03:39:21.367Z,997.75
2018-04-18T03:40:21.357Z,997.70
2018-04-18T03:41:21.327Z,997.73
2018-04-18T03:42:21.388Z,997.78
2018-04-18T03:43:21.212Z,997.76
2018-04-18T03:44:21.146Z,997.79
2018-04-18T03:45:21.138Z,997.81
2018-04-18T03:46:21.058Z,997.82
2018-04-18T03:47:21.046Z,997.83
2018-04-18T03:48:20.998Z,997.84
2018-04-18T03:49:20.934Z,997.84
2018-04-18T03:50:20.901Z,997.87
2018-04-18T03:51:20.879Z,997.87
2018-04-18T03:52:20.855Z,997.88
2018-04-18T03:53:20.786Z,997.86
2018-04-18T03:54:20.727Z,997.90
2018-04-18T03:55:20.684Z,997.88
2018-04-18T03:56:20.680Z,997.92
2018-04-18T03:57:20.603Z,997.94
2018-04-18T03:58:20.593Z,997.96
2018-04-18T03:59:20.543Z,997.96
2018-04-18T04:00:20.515Z,997.96
2018-04-18T04:01:20.457Z,997.97
2018-04-18T04:02:20.409Z,997.98
2018-04-18T04:03:20.487Z,997.97
2018-04-18T04:04:20.319Z,997.97
2018-04-18T04:05:20.307Z,997.95
2018-04-18T04:06:20.261Z,997.96
2018-04-18T04:07:20.211Z,997.98
2018-04-18T04:08:20.157Z,997.97
2018-04-18T04:09:20.443Z,997.93
2018-04-18T04:10:20.230Z,997.97
2018-04-18T04:11:20.110Z,997.97
2018-04-18T04:12:20.135Z,997.99
2018-04-18T04:13:19.987Z,997.95
2018-04-18T04:14:19.914Z,997.92
2018-04-18T04:15:19.881Z,997.89
2018-04-18T04:16:19.856Z,997.96
2018-04-18T04:17:19.796Z,997.94
2018-04-18T04:18:19.763Z,997.92
2018-04-18T04:19:19.731Z,997.96
2018-04-18T04:20:19.701Z,997.95
2018-04-18T04:21:19.627Z,997.97
2018-04-18T04:22:19.605Z,997.97
2018-04-18T04:23:19.536Z,997.94
2018-04-18T04:24:19.522Z,997.95
2018-04-18T04:25:19.498Z,997.96
2018-04-18T04:26:19.446Z,997.95
2018-04-18T04:27:19.389Z,997.95
2018-04-18T04:28:19.355Z,997.99
2018-04-18T04:29:19.310Z,998.03
2018-04-18T04:30:19.288Z,998.01
2018-04-18T04:31:19.241Z,998.04
2018-04-18T04:32:19.175Z,998.04
2018-04-18T04:33:19.123Z,998.06
2018-04-18T04:34:19.090Z,998.07
2018-04-18T04:35:19.078Z,998.06
2018-04-18T04:36:19.019Z,998.10
2018-04-18T04:37:18.988Z,998.11
2018-04-18T04:38:18.934Z,998.07
2018-04-18T04:39:18.936Z,998.09
2018-04-18T04:40:18.845Z,998.12
2018-04-18T04:41:18.829Z,998.11
2018-04-18T04:42:18.751Z,998.14
2018-04-18T04:43:18.724Z,998.13
2018-04-18T04:44:18.682Z,998.13
2018-04-18T04:45:18.632Z,998.13
2018-04-18T04:46:18.616Z,998.16
2018-04-18T04:47:18.556Z,998.19
2018-04-18T04:48:18.504Z,998.19
2018-04-18T04:49:18.500Z,998.26
2018-04-18T04:50:18.424Z,998.24
2018-04-18T04:51:18.388Z,998.27
2018-04-18T04:52:18.359Z,998.27
2018-04-18T04:53:18.312Z,998.31
2018-04-18T04:54:18.310Z,998.27
2018-04-18T04:55:18.340Z,998.29
2018-04-18T04:56:18.282Z,998.28
2018-04-18T04:57:18.179Z,998.30
2018-04-18T04:58:18.095Z,998.28
2018-04-18T04:59:18.079Z,998.30
2018-04-18T05:00:18.040Z,998.32
2018-04-18T05:01:17.981Z,998.31
2018-04-18T05:02:17.931Z,998.33
2018-04-18T05:03:17.920Z,998.36
2018-04-18T05:04:17.885Z,998.35
2018-04-18T05:05:17.842Z,998.36
2018-04-18T05:06:17.769Z,998.39
2018-04-18T05:07:17.739Z,998.38
2018-04-18T05:08:17.677Z,998.38
2018-04-18T05:09:17.673Z,998.40
2018-04-18T05:10:17.668Z,998.42
2018-04-18T05:11:17.575Z,998.44
2018-04-18T05:12:17.547Z,998.44
2018-04-18T05:13:17.512Z,998.48
2018-04-18T05:14:17.468Z,998.46
2018-04-18T05:15:17.415Z,998.45
2018-04-18T05:16:17.383Z,998.49
2018-04-18T05:17:17.339Z,998.48
2018-04-18T05:18:17.301Z,998.48
2018-04-18T05:19:17.263Z,998.52
2018-04-18T05:20:17.226Z,998.54
2018-04-18T05:21:17.188Z,998.59
2018-04-18T05:22:17.153Z,998.61
2018-04-18T05:23:17.093Z,998.64
2018-04-18T05:24:17.083Z,998.64
2018-04-18T05:25:16.996Z,998.64
2018-04-18T05:26:16.994Z,998.68
2018-04-18T05:27:16.961Z,998.68
2018-04-18T05:28:16.885Z,998.70
2018-04-18T05:29:16.866Z,998.70
2018-04-18T05:30:16.828Z,998.73
2018-04-18T05:31:16.776Z,998.73
2018-04-18T05:32:16.739Z,998.77
2018-04-18T05:33:16.705Z,998.76
2018-04-18T05:34:16.641Z,998.80
2018-04-18T05:35:16.615Z,998.79
2018-04-18T05:36:16.622Z,998.82
2018-04-18T05:37:16.580Z,998.84
2018-04-18T05:38:16.506Z,998.84
2018-04-18T05:39:16.467Z,998.83
2018-04-18T05:40:16.430Z,998.83
2018-04-18T05:41:16.366Z,998.85
2018-04-18T05:42:16.365Z,998.86
2018-04-18T05:43:16.303Z,998.86
2018-04-18T05:44:16.291Z,998.88
2018-04-18T05:45:16.245Z,998.87
2018-04-18T05:46:16.196Z,998.86
2018-04-18T05:47:16.137Z,998.87
2018-04-18T05:48:16.151Z,998.91
2018-04-18T05:49:16.051Z,998.92
2018-04-18T05:50:16.016Z,998.92
2018-04-18T05:51:16.014Z,998.91
2018-04-18T05:52:15.941Z,998.89
2018-04-18T05:53:15.974Z,998.91
2018-04-18T05:54:15.872Z,998.93
2018-04-18T05:55:15.826Z,998.90
2018-04-18T05:56:15.805Z,998.94
2018-04-18T05:57:15.743Z,998.93
2018-04-18T05:58:15.710Z,998.93
2018-04-18T05:59:15.674Z,998.94
2018-04-18T06:00:15.671Z,998.94
2018-04-18T06:01:15.602Z,998.97
2018-04-18T06:02:15.559Z,998.98
2018-04-18T06:03:15.533Z,999.01
2018-04-18T06:04:15.515Z,999.02
2018-04-18T06:05:15.439Z,999.01
2018-04-18T06:06:15.492Z,999.04
2018-04-18T06:07:15.369Z,999.02
2018-04-18T06:08:15.329Z,999.08
2018-04-18T06:09:15.362Z,999.08
2018-04-18T06:10:15.257Z,999.09
2018-04-18T06:11:15.368Z,999.06
2018-04-18T06:12:15.187Z,999.10
2018-04-18T06:13:15.157Z,999.08
2018-04-18T06:14:15.129Z,999.06
2018-04-18T06:15:15.073Z,999.10
2018-04-18T06:16:15.049Z,999.11
2018-04-18T06:17:15.003Z,999.09
2018-04-18T06:18:14.961Z,999.13
2018-04-18T06:19:15.054Z,999.13
2018-04-18T06:20:14.890Z,999.17
2018-04-18T06:21:14.842Z,999.14
2018-04-18T06:22:14.816Z,999.15
2018-04-18T06:23:14.819Z,999.18
2018-04-18T06:24:14.757Z,999.17
2018-04-18T06:25:14.696Z,999.20
2018-04-18T06:26:14.668Z,999.21
2018-04-18T06:27:14.663Z,999.21
2018-04-18T06:28:14.597Z,999.21
2018-04-18T06:29:14.596Z,999.26
2018-04-18T06:30:14.530Z,999.23
2018-04-18T06:31:14.480Z,999.25
2018-04-18T06:32:14.452Z,999.27
2018-04-18T06:33:14.415Z,999.27
2018-04-18T06:34:14.400Z,999.27
2018-04-18T06:35:14.387Z,999.29
2018-04-18T06:36:14.325Z,999.27
2018-04-18T06:37:14.264Z,999.24
2018-04-18T06:38:14.237Z,999.26
2018-04-18T06:39:14.198Z,999.27
2018-04-18T06:40:14.143Z,999.27
2018-04-18T06:41:14.151Z,999.26
2018-04-18T06:42:14.091Z,999.24
2018-04-18T06:43:14.053Z,999.28
2018-04-18T06:44:14.013Z,999.28
2018-04-18T06:45:13.976Z,999.29
2018-04-18T06:46:13.939Z,999.29
2018-04-18T06:47:13.977Z,999.30
2018-04-18T06:48:13.928Z,999.29
2018-04-18T06:49:13.903Z,999.32
2018-04-18T06:50:13.828Z,999.35
2018-04-18T06:51:13.812Z,999.34
2018-04-18T06:52:13.746Z,999.36
2018-04-18T06:53:13.711Z,999.35
2018-04-18T06:54:13.724Z,999.36
2018-04-18T06:55:13.663Z,999.39
2018-04-18T06:56:13.588Z,999.32
2018-04-18T06:57:13.665Z,999.38
2018-04-18T06:58:13.506Z,999.41
2018-04-18T06:59:13.526Z,999.42
2018-04-18T07:00:13.468Z,999.39
2018-04-18T07:01:13.419Z,999.44
2018-04-18T07:02:13.398Z,999.43
2018-04-18T07:03:13.382Z,999.43
2018-04-18T07:04:13.351Z,999.44
2018-04-18T07:05:13.293Z,999.47
2018-04-18T07:06:13.255Z,999.48
2018-04-18T07:07:13.262Z,999.46
2018-04-18T07:08:13.196Z,999.51
2018-04-18T07:09:13.216Z,999.52
2018-04-18T07:10:13.159Z,999.49
2018-04-18T07:11:13.137Z,999.49
2018-04-18T07:12:13.175Z,999.46
2018-04-18T07:13:13.072Z,999.48
2018-04-18T07:14:13.060Z,999.46
2018-04-18T07:15:13.012Z,999.49
2018-04-18T07:16:12.987Z,999.51
2018-04-18T07:17:13.015Z,999.54
2018-04-18T07:18:12.959Z,999.56
2018-04-18T07:19:12.904Z,999.57
2018-04-18T07:20:12.897Z,999.53
2018-04-18T07:21:12.876Z,999.55
2018-04-18T07:22:12.832Z,999.57
2018-04-18T07:23:12.843Z,999.54
2018-04-18T07:24:12.768Z,999.53
2018-04-18T07:25:12.743Z,999.52
2018-04-18T07:26:12.720Z,999.56
2018-04-18T07:27:12.715Z,999.58
2018-04-18T07:28:12.724Z,999.55
2018-04-18T07:29:12.683Z,999.60
2018-04-18T07:30:12.639Z,999.61
2018-04-18T07:31:12.647Z,999.64
2018-04-18T07:32:12.566Z,999.62
2018-04-18T07:33:12.655Z,999.68
2018-04-18T07:34:12.535Z,999.67
2018-04-18T07:35:12.512Z,999.68
2018-04-18T07:36:12.511Z,999.72
2018-04-18T07:37:12.519Z,999.72
2018-04-18T07:38:12.474Z,999.78
2018-04-18T07:39:12.457Z,999.72
2018-04-18T07:40:15.000Z,999.71
2018-04-18T07:41:12.413Z,999.75
2018-04-18T07:42:12.412Z,999.77
2018-04-18T07:43:12.345Z,999.75
2018-04-18T07:44:12.351Z,999.71
2018-04-18T07:45:12.301Z,999.76
2018-04-18T07:46:12.289Z,999.76
2018-04-18T07:47:12.281Z,999.69
2018-04-18T07:48:12.906Z,999.73
2018-04-18T07:49:12.247Z,999.72
2018-04-18T07:50:12.203Z,999.70
2018-04-18T07:51:12.164Z,999.67
2018-04-18T07:52:12.159Z,999.75
2018-04-18T07:53:12.128Z,999.73
2018-04-18T07:54:12.098Z,999.73
2018-04-18T07:55:12.125Z,999.74
2018-04-18T07:56:12.072Z,999.72
2018-04-18T07:57:12.108Z,999.70
2018-04-18T07:58:12.067Z,999.72
2018-04-18T07:59:12.093Z,999.73
2018-04-18T08:00:11.987Z,999.73
2018-04-18T08:01:12.006Z,999.74
2018-04-18T08:02:11.945Z,999.73
2018-04-18T08:03:11.968Z,999.74
2018-04-18T08:04:11.902Z,999.75
2018-04-18T08:05:11.904Z,999.76
2018-04-18T08:06:11.917Z,999.76
2018-04-18T08:07:11.887Z,999.79
2018-04-18T08:08:11.877Z,999.76
2018-04-18T08:09:11.833Z,999.82
2018-04-18T08:10:11.808Z,999.79
2018-04-18T08:11:11.766Z,999.74
2018-04-18T08:12:11.786Z,999.76
2018-04-18T08:13:11.740Z,999.78
2018-04-18T08:14:11.764Z,999.80
2018-04-18T08:15:11.695Z,999.83
2018-04-18T08:16:11.753Z,999.81
2018-04-18T08:17:11.762Z,999.82
2018-04-18T08:18:11.640Z,999.77
2018-04-18T08:19:11.723Z,999.77
2018-04-18T08:20:11.654Z,999.79
2018-04-18T08:21:11.717Z,999.82
2018-04-18T08:22:11.592Z,999.80
2018-04-18T08:23:11.596Z,999.83
2018-04-18T08:24:11.564Z,999.83
2018-04-18T08:25:11.550Z,999.84
2018-04-18T08:26:11.553Z,999.85
2018-04-18T08:27:11.499Z,999.90
2018-04-18T08:28:11.481Z,999.90
2018-04-18T08:29:11.487Z,999.93
2018-04-18T08:30:11.474Z,999.90
2018-04-18T08:31:11.501Z,999.91
2018-04-18T08:32:11.401Z,999.94
2018-04-18T08:33:11.471Z,999.93
2018-04-18T08:34:11.430Z,999.94
2018-04-18T08:35:11.932Z,999.90
2018-04-18T08:36:11.322Z,999.91
2018-04-18T08:37:11.326Z,999.93
2018-04-18T08:38:11.338Z,999.94
2018-04-18T08:39:11.370Z,999.94
2018-04-18T08:40:11.281Z,999.95
2018-04-18T08:41:11.264Z,999.95
2018-04-18T08:42:11.268Z,1000.02
2018-04-18T08:43:11.234Z,1000.02
2018-04-18T08:44:11.233Z,1000.01
2018-04-18T08:45:11.187Z,999.99
2018-04-18T08:46:11.194Z,1000.00
2018-04-18T08:47:11.192Z,1000.01
2018-04-18T08:48:11.177Z,999.99
2018-04-18T08:49:11.121Z,1000.01
2018-04-18T08:50:11.114Z,1000.02
2018-04-18T08:51:11.100Z,1000.03
2018-04-18T08:52:11.116Z,1000.02
2018-04-18T08:53:11.147Z,1000.00
2018-04-18T08:54:11.050Z,999.97
2018-04-18T08:55:11.054Z,999.98
2018-04-18T08:56:11.108Z,1000.02
2018-04-18T08:57:10.984Z,1000.00
2018-04-18T08:58:10.981Z,999.97
2018-04-18T08:59:10.960Z,999.95
2018-04-18T09:00:10.991Z,999.96
2018-04-18T09:01:10.960Z,1000.01
2018-04-18T09:02:10.965Z,1000.00
2018-04-18T09:03:10.891Z,999.97
2018-04-18T09:04:10.899Z,999.98
2018-04-18T09:05:10.935Z,1000.03
2018-04-18T09:06:10.841Z,1000.01
2018-04-18T09:07:10.945Z,1000.00
2018-04-18T09:08:10.839Z,999.96
2018-04-18T09:09:10.815Z,1000.01
2018-04-18T09:10:10.863Z,999.96
2018-04-18T09:11:10.787Z,999.97
2018-04-18T09:12:10.838Z,999.95
2018-04-18T09:13:10.773Z,1000.00
2018-04-18T09:14:10.775Z,999.97
2018-04-18T09:15:10.704Z,999.96
2018-04-18T09:16:10.703Z,999.97
2018-04-18T09:17:10.691Z,999.96
2018-04-18T09:18:10.663Z,999.98
2018-04-18T09:19:10.754Z,999.96
2018-04-18T09:20:10.711Z,999.94
2018-04-18T09:21:10.622Z,999.96
2018-04-18T09:22:10.610Z,1000.00
2018-04-18T09:23:10.626Z,999.97
2018-04-18T09:24:10.657Z,999.98
2018-04-18T09:25:10.548Z,1000.00
2018-04-18T09:26:10.520Z,999.98
2018-04-18T09:27:10.581Z,999.97
2018-04-18T09:28:10.598Z,999.98
2018-04-18T09:29:10.493Z,1000.00
2018-04-18T09:30:10.461Z,1000.00
2018-04-18T09:31:10.485Z,999.98
2018-04-18T09:32:10.456Z,999.99
2018-04-18T09:33:10.420Z,999.97
2018-04-18T09:34:10.396Z,1000.02
2018-04-18T09:35:10.403Z,1000.02
2018-04-18T09:36:10.404Z,1000.00
2018-04-18T09:37:10.400Z,1000.01
2018-04-18T09:38:10.388Z,1000.03
2018-04-18T09:39:10.338Z,1000.02
2018-04-18T09:40:10.350Z,1000.03
2018-04-18T09:41:10.370Z,1000.03
2018-04-18T09:42:10.371Z,1000.03
2018-04-18T09:43:10.277Z,1000.03
2018-04-18T09:44:10.245Z,1000.01
2018-04-18T09:45:10.260Z,1000.02
2018-04-18T09:46:10.292Z,999.99
2018-04-18T09:47:10.210Z,999.98
2018-04-18T09:48:10.215Z,999.95
2018-04-18T09:49:10.207Z,999.95
2018-04-18T09:50:10.173Z,999.98
2018-04-18T09:51:10.144Z,999.98
2018-04-18T09:52:10.146Z,999.95
2018-04-18T09:53:10.103Z,999.97
2018-04-18T09:54:10.103Z,999.99
2018-04-18T09:55:10.163Z,999.96
2018-04-18T09:56:10.061Z,999.97
2018-04-18T09:57:10.049Z,999.99
2018-04-18T09:58:10.097Z,999.99
2018-04-18T09:59:10.052Z,1000.01
2018-04-18T10:00:10.025Z,1000.02
2018-04-18T10:01:09.985Z,1000.06
2018-04-18T10:02:09.944Z,1000.03
2018-04-18T10:03:09.977Z,1000.04
2018-04-18T10:04:09.956Z,1000.05
2018-04-18T10:05:09.920Z,1000.03
2018-04-18T10:06:09.877Z,1000.06
2018-04-18T10:07:09.888Z,1000.02
2018-04-18T10:08:09.899Z,1000.01
2018-04-18T10:09:09.872Z,1000.03
2018-04-18T10:10:09.832Z,1000.05
2018-04-18T10:11:09.795Z,1000.00
2018-04-18T10:12:09.791Z,1000.01
2018-04-18T10:13:09.761Z,1000.04
2018-04-18T10:14:09.789Z,1000.03
2018-04-18T10:15:09.745Z,1000.03
2018-04-18T10:16:09.790Z,1000.03
2018-04-18T10:17:09.771Z,1000.03
2018-04-18T10:18:09.701Z,1000.00
2018-04-18T10:19:09.669Z,1000.00
2018-04-18T10:20:09.660Z,1000.00
2018-04-18T10:21:10.470Z,1000.01
2018-04-18T10:22:09.690Z,1000.02
2018-04-18T10:23:09.626Z,1000.02
2018-04-18T10:24:09.627Z,1000.02
2018-04-18T10:25:09.714Z,1000.03
2018-04-18T10:26:09.602Z,1000.00
2018-04-18T10:27:09.552Z,1000.07
2018-04-18T10:28:09.583Z,1000.04
2018-04-18T10:29:09.531Z,1000.04
2018-04-18T10:30:09.551Z,1000.04
2018-04-18T10:31:09.557Z,1000.04
2018-04-18T10:32:09.489Z,1000.04
2018-04-18T10:33:09.470Z,1000.05
2018-04-18T10:34:09.448Z,1000.07
2018-04-18T10:35:09.431Z,1000.04
2018-04-18T10:36:09.380Z,1000.04
2018-04-18T10:37:09.438Z,1000.05
2018-04-18T10:38:10.019Z,1000.06
2018-04-18T10:39:09.386Z,1000.07
2018-04-18T10:40:09.322Z,1000.06
2018-04-18T10:41:09.351Z,1000.04
2018-04-18T10:42:09.283Z,1000.02
2018-04-18T10:43:09.320Z,1000.05
2018-04-18T10:44:09.316Z,1000.02
2018-04-18T10:45:09.241Z,1000.05
2018-04-18T10:46:09.243Z,1000.03
2018-04-18T10:47:09.203Z,1000.05
2018-04-18T10:48:09.198Z,1000.04
2018-04-18T10:49:09.172Z,1000.04
2018-04-18T10:50:09.142Z,1000.06
2018-04-18T10:51:09.125Z,1000.03
2018-04-18T10:52:09.186Z,1000.05
2018-04-18T10:53:09.108Z,1000.00
2018-04-18T10:54:09.171Z,999.98
2018-04-18T10:55:09.099Z,999.95
2018-04-18T10:56:09.051Z,1000.00
2018-04-18T10:57:09.064Z,999.98
2018-04-18T10:58:08.995Z,999.98
2018-04-18T10:59:08.987Z,999.99
2018-04-18T11:00:08.982Z,999.96
2018-04-18T11:01:08.977Z,999.92
2018-04-18T11:02:08.923Z,999.93
2018-04-18T11:03:08.967Z,999.95
2018-04-18T11:04:08.935Z,999.94
2018-04-18T11:05:08.891Z,999.92
2018-04-18T11:06:08.863Z,999.93
2018-04-18T11:07:08.826Z,999.96
2018-04-18T11:08:08.810Z,999.92
2018-04-18T11:09:08.807Z,999.94
2018-04-18T11:10:08.815Z,999.90
2018-04-18T11:11:08.784Z,999.89
2018-04-18T11:12:08.759Z,999.93
2018-04-18T11:13:08.743Z,999.92
2018-04-18T11:14:08.710Z,999.89
2018-04-18T11:15:08.700Z,999.93
2018-04-18T11:16:08.696Z,999.91
2018-04-18T11:17:08.761Z,999.94
2018-04-18T11:18:08.745Z,999.89
2018-04-18T11:19:08.632Z,999.92
2018-04-18T11:20:08.607Z,999.93
2018-04-18T11:21:08.651Z,999.89
2018-04-18T11:22:08.596Z,999.88
2018-04-18T11:23:08.546Z,999.90
2018-04-18T11:24:08.619Z,999.85
2018-04-18T11:25:09.495Z,999.84
2018-04-18T11:26:08.582Z,999.82
2018-04-18T11:27:08.493Z,999.82
2018-04-18T11:28:08.468Z,999.79
2018-04-18T11:29:08.438Z,999.86
2018-04-18T11:30:08.512Z,999.85
2018-04-18T11:31:08.410Z,999.82
2018-04-18T11:32:08.394Z,999.83
2018-04-18T11:33:08.400Z,999.83
2018-04-18T11:34:08.376Z,999.83
2018-04-18T11:35:08.330Z,999.83
2018-04-18T11:36:08.347Z,999.83
2018-04-18T11:37:08.357Z,999.82
2018-04-18T11:38:08.284Z,999.78
2018-04-18T11:39:08.281Z,999.82
2018-04-18T11:40:08.253Z,999.79
2018-04-18T11:41:08.255Z,999.76
2018-04-18T11:42:08.249Z,999.75
2018-04-18T11:43:08.237Z,999.74
2018-04-18T11:44:08.207Z,999.76
2018-04-18T11:45:08.163Z,999.75
2018-04-18T11:46:08.183Z,999.74
2018-04-18T11:47:08.127Z,999.73
2018-04-18T11:48:08.125Z,999.74
2018-04-18T11:49:08.094Z,999.80
2018-04-18T11:50:08.095Z,999.75
2018-04-18T11:51:08.039Z,999.73
2018-04-18T11:52:08.032Z,999.75
2018-04-18T11:53:08.055Z,999.74
2018-04-18T11:54:08.052Z,999.71
2018-04-18T11:55:08.008Z,999.70
2018-04-18T11:56:07.987Z,999.73
2018-04-18T11:57:07.953Z,999.71
2018-04-18T11:58:07.957Z,999.69
2018-04-18T11:59:08.001Z,999.72
2018-04-18T12:00:07.902Z,999.71
2018-04-18T12:01:07.893Z,999.71
2018-04-18T12:02:07.841Z,999.69
2018-04-18T12:03:07.811Z,999.75
2018-04-18T12:04:07.976Z,999.73
2018-04-18T12:05:07.792Z,999.77
2018-04-18T12:06:07.788Z,999.76
2018-04-18T12:07:07.778Z,999.75
2018-04-18T12:08:07.769Z,999.76
2018-04-18T12:09:07.764Z,999.76
2018-04-18T12:10:07.717Z,999.79
2018-04-18T12:11:07.756Z,999.81
2018-04-18T12:12:07.666Z,999.79
2018-04-18T12:13:07.648Z,999.76
2018-04-18T12:14:07.635Z,999.77
2018-04-18T12:15:07.630Z,999.78
2018-04-18T12:16:07.606Z,999.79
2018-04-18T12:17:07.605Z,999.76
2018-04-18T12:18:07.592Z,999.74
2018-04-18T12:19:07.650Z,999.75
2018-04-18T12:20:07.519Z,999.73
2018-04-18T12:21:07.542Z,999.75
2018-04-18T12:22:07.492Z,999.70
2018-04-18T12:23:07.490Z,999.69
2018-04-18T12:24:07.475Z,999.72
2018-04-18T12:25:07.456Z,999.71